createdAt,value
2018-02-10T00:02:07.876Z,32.47
2018-02-10T00:04:38.694Z,30.50
2018-02-10T00:07:09.167Z,31.07
2018-02-10T00:09:40.875Z,29.73
2018-02-10T00:12:11.799Z,31.53
2018-02-10T00:14:42.659Z,30.37
2018-02-10T00:17:13.605Z,32.13
2018-02-10T00:19:44.457Z,26.70
2018-02-10T00:22:27.069Z,28.30
2018-02-10T00:24:58.784Z,27.77
2018-02-10T00:27:29.798Z,28.67
2018-02-10T00:30:00.570Z,27.90
2018-02-10T00:32:31.341Z,28.50
2018-02-10T00:35:02.758Z,26.67
2018-02-10T00:37:34.323Z,25.30
2018-02-10T00:40:05.773Z,26.30
2018-02-10T00:42:36.712Z,26.97
2018-02-10T00:45:07.506Z,27.30
2018-02-10T00:47:38.337Z,26.30
2018-02-10T00:50:09.051Z,25.83
2018-02-10T00:52:40.529Z,24.60
2018-02-10T00:55:11.490Z,23.20
2018-02-10T00:57:42.219Z,23.10
2018-02-10T01:00:13.629Z,24.80
2018-02-10T01:02:44.554Z,24.67
2018-02-10T01:05:16.122Z,22.37
2018-02-10T01:07:46.793Z,23.77
2018-02-10T01:10:18.473Z,23.20
2018-02-10T01:12:49.374Z,22.63
2018-02-10T01:15:20.286Z,23.17
2018-02-10T01:17:51.713Z,24.73
2018-02-10T01:20:23.723Z,24.70
2018-02-10T01:22:54.386Z,24.50
2018-02-10T01:25:25.325Z,24.83
2018-02-10T01:27:56.267Z,25.47
2018-02-10T01:30:27.016Z,23.10
2018-02-10T01:32:58.756Z,23.27
2018-02-10T01:35:29.702Z,25.20
2018-02-10T01:38:00.515Z,24.10
2018-02-10T01:40:32.605Z,24.80
2018-02-10T01:43:03.093Z,25.47
2018-02-10T01:45:33.866Z,24.43
2018-02-10T01:48:04.670Z,25.70
2018-02-10T01:50:35.740Z,24.50
2018-02-10T01:53:07.257Z,25.83
2018-02-10T01:55:38.008Z,24.13
2018-02-10T01:58:09.482Z,24.50
2018-02-10T02:00:41.283Z,23.70
2018-02-10T02:03:11.842Z,24.87
2018-02-10T02:05:42.438Z,23.90
2018-02-10T02:08:13.310Z,22.60
2018-02-10T02:10:44.165Z,23.00
2018-02-10T02:13:14.952Z,23.90
2018-02-10T02:15:45.721Z,24.33
2018-02-10T02:18:16.676Z,23.20
2018-02-10T02:20:47.411Z,23.40
2018-02-10T02:23:18.307Z,23.80
2018-02-10T02:25:49.184Z,24.20
2018-02-10T02:28:21.205Z,24.20
2018-02-10T02:30:52.058Z,25.30
2018-02-10T02:33:22.893Z,24.60
2018-02-10T02:35:53.581Z,25.07
2018-02-10T02:38:25.161Z,24.87
2018-02-10T02:40:56.863Z,24.37
2018-02-10T02:43:27.593Z,24.50
2018-02-10T02:45:58.408Z,24.30
2018-02-10T02:48:29.226Z,23.80
2018-02-10T02:51:00.061Z,24.00
2018-02-10T02:53:30.946Z,23.10
2018-02-10T02:56:01.786Z,24.10
2018-02-10T02:58:32.711Z,24.67
2018-02-10T03:01:03.545Z,24.73
2018-02-10T03:03:34.366Z,23.93
2018-02-10T03:06:05.206Z,25.00
2018-02-10T03:08:36.163Z,24.37
2018-02-10T03:11:07.110Z,25.07
2018-02-10T03:13:37.755Z,26.07
2018-02-10T03:16:09.345Z,24.57
2018-02-10T03:18:40.149Z,24.00
2018-02-10T03:21:11.834Z,23.33
2018-02-10T03:23:42.720Z,26.83
2018-02-10T03:26:13.489Z,24.17
2018-02-10T03:28:45.208Z,27.00
2018-02-10T03:31:16.056Z,25.23
2018-02-10T03:33:52.960Z,25.23
2018-02-10T03:36:24.683Z,24.80
2018-02-10T03:38:55.661Z,25.13
2018-02-10T03:41:26.342Z,25.63
2018-02-10T03:43:57.007Z,26.10
2018-02-10T03:46:28.311Z,26.40
2018-02-10T03:48:59.174Z,27.90
2018-02-10T03:51:30.174Z,26.70
2018-02-10T03:54:00.962Z,27.40
2018-02-10T03:56:32.316Z,24.23
2018-02-10T03:59:04.039Z,27.07
2018-02-10T04:01:34.853Z,27.37
2018-02-10T04:04:05.811Z,27.70
2018-02-10T04:06:36.546Z,28.00
2018-02-10T04:09:07.487Z,27.47
2018-02-10T04:11:39.145Z,25.37
2018-02-10T04:14:10.199Z,24.13
2018-02-10T04:16:42.043Z,25.87
2018-02-10T04:19:12.883Z,23.97
2018-02-10T04:21:43.466Z,23.00
2018-02-10T04:24:14.242Z,25.43
2018-02-10T04:26:44.781Z,24.80
2018-02-10T04:29:15.746Z,23.50
2018-02-10T04:31:47.460Z,22.30
2018-02-10T04:34:18.517Z,24.50
2018-02-10T04:36:49.247Z,23.43
2018-02-10T04:39:19.946Z,23.03
2018-02-10T04:41:50.667Z,25.70
2018-02-10T04:44:21.345Z,24.10
2018-02-10T04:46:52.737Z,23.50
2018-02-10T04:49:24.247Z,25.63
2018-02-10T04:51:54.921Z,24.77
2018-02-10T04:54:28.121Z,22.80
2018-02-10T04:56:58.540Z,23.80
2018-02-10T04:59:30.949Z,24.00
2018-02-10T05:02:01.625Z,22.80
2018-02-10T05:04:32.892Z,24.07
2018-02-10T05:07:04.925Z,23.73
2018-02-10T05:09:35.955Z,22.00
2018-02-10T05:12:06.696Z,24.83
2018-02-10T05:14:37.650Z,23.23
2018-02-10T05:17:10.149Z,22.60
2018-02-10T05:19:43.597Z,21.50
2018-02-10T05:22:14.570Z,21.23
2018-02-10T05:24:45.222Z,19.60
2018-02-10T05:27:17.116Z,20.83
2018-02-10T05:29:47.905Z,19.27
2018-02-10T05:32:20.057Z,20.83
2018-02-10T05:34:51.699Z,22.07
2018-02-10T05:37:22.622Z,21.97
2018-02-10T05:39:53.591Z,21.07
2018-02-10T05:42:24.843Z,20.83
2018-02-10T05:44:55.677Z,22.40
2018-02-10T05:47:26.497Z,21.80
2018-02-10T05:49:57.308Z,21.40
2018-02-10T05:52:27.879Z,21.97
2018-02-10T05:54:58.324Z,20.90
2018-02-10T05:57:30.434Z,20.67
2018-02-10T06:00:01.418Z,20.80
2018-02-10T06:02:32.898Z,20.57
2018-02-10T06:05:04.690Z,21.33
2018-02-10T06:07:35.679Z,20.93
2018-02-10T06:10:07.404Z,19.50
2018-02-10T06:12:38.367Z,18.87
2018-02-10T06:15:09.143Z,18.90
2018-02-10T06:17:39.883Z,18.20
2018-02-10T06:20:10.771Z,19.03
2018-02-10T06:22:41.634Z,18.17
2018-02-10T06:25:12.518Z,16.80
2018-02-10T06:27:43.289Z,17.10
2018-02-10T06:30:15.227Z,17.40
2018-02-10T06:32:48.926Z,17.70
2018-02-10T06:35:19.567Z,17.47
2018-02-10T06:37:50.486Z,18.10
2018-02-10T06:40:21.251Z,17.80
2018-02-10T06:42:52.902Z,19.17
2018-02-10T06:45:23.809Z,19.03
2018-02-10T06:47:54.623Z,17.70
2018-02-10T06:50:25.541Z,20.50
2018-02-10T06:52:57.679Z,19.90
2018-02-10T06:55:28.635Z,19.40
2018-02-10T06:57:59.991Z,18.83
2018-02-10T07:00:31.462Z,18.07
2018-02-10T07:03:02.302Z,17.67
2018-02-10T07:05:33.666Z,17.93
2018-02-10T07:08:04.760Z,16.33
2018-02-10T07:10:36.518Z,17.00
2018-02-10T07:13:08.674Z,16.87
2018-02-10T07:15:41.314Z,17.37
2018-02-10T07:18:12.428Z,18.40
2018-02-10T07:20:43.949Z,16.37
2018-02-10T07:23:16.885Z,16.03
2018-02-10T07:25:48.087Z,16.30
2018-02-10T07:28:19.135Z,15.83
2018-02-10T07:30:51.129Z,15.43
2018-02-10T07:33:22.133Z,15.60
2018-02-10T07:35:53.902Z,15.93
2018-02-10T07:38:25.501Z,15.00
2018-02-10T07:40:56.321Z,16.23
2018-02-10T07:43:27.230Z,16.07
2018-02-10T07:45:58.846Z,15.53
2018-02-10T07:48:30.257Z,15.33
2018-02-10T07:51:02.048Z,15.80
2018-02-10T07:53:33.195Z,15.30
2018-02-10T07:56:05.120Z,14.33
2018-02-10T07:58:35.934Z,14.60
2018-02-10T08:01:07.641Z,14.47
2018-02-10T08:03:38.480Z,15.17
2018-02-10T08:06:09.281Z,14.23
2018-02-10T08:08:41.295Z,15.03
2018-02-10T08:11:12.139Z,14.97
2018-02-10T08:13:43.249Z,15.23
2018-02-10T08:16:15.064Z,14.93
2018-02-10T08:18:46.307Z,13.13
2018-02-10T08:21:17.831Z,14.70
2018-02-10T08:23:48.972Z,14.60
2018-02-10T08:26:19.881Z,13.90
2018-02-10T08:28:50.830Z,13.87
2018-02-10T08:31:21.903Z,13.80
2018-02-10T08:33:53.312Z,14.00
2018-02-10T08:36:24.070Z,13.80
2018-02-10T08:38:54.833Z,13.20
2018-02-10T08:41:26.395Z,14.00
2018-02-10T08:43:58.069Z,13.67
2018-02-10T08:46:28.842Z,12.73
2018-02-10T08:48:59.686Z,13.17
2018-02-10T08:51:32.018Z,12.87
2018-02-10T08:54:02.862Z,13.13
2018-02-10T08:56:34.237Z,14.07
2018-02-10T08:59:05.110Z,13.40
2018-02-10T09:01:36.928Z,12.70
2018-02-10T09:04:07.781Z,12.80
2018-02-10T09:06:38.523Z,12.97
2018-02-10T09:09:09.980Z,13.20
2018-02-10T09:11:41.403Z,13.23
2018-02-10T09:14:12.753Z,13.00
2018-02-10T09:16:43.691Z,13.07
2018-02-10T09:19:14.662Z,13.30
2018-02-10T09:21:46.495Z,12.57
2018-02-10T09:24:17.432Z,12.20
2018-02-10T09:26:48.375Z,13.27
2018-02-10T09:31:49.566Z,13.00
2018-02-10T09:34:21.344Z,13.33
2018-02-10T09:36:52.687Z,12.97
2018-02-10T09:39:23.782Z,11.63
2018-02-10T09:41:54.580Z,12.50
2018-02-10T09:44:25.447Z,12.97
2018-02-10T09:46:57.077Z,14.00
2018-02-10T09:49:27.840Z,13.03
2018-02-10T09:51:58.554Z,13.97
2018-02-10T09:54:29.544Z,13.00
2018-02-10T09:57:01.223Z,12.47
2018-02-10T09:59:32.109Z,12.80
2018-02-10T10:02:03.200Z,13.33
2018-02-10T10:04:33.907Z,13.20
2018-02-10T10:07:05.570Z,13.00
2018-02-10T10:09:37.530Z,13.50
2018-02-10T10:12:08.391Z,13.63
2018-02-10T10:14:39.751Z,13.80
2018-02-10T10:17:10.615Z,13.67
2018-02-10T10:19:42.242Z,13.07
2018-02-10T10:22:13.177Z,13.30
2018-02-10T10:24:43.854Z,13.10
2018-02-10T10:27:14.926Z,13.43
2018-02-10T10:29:46.544Z,13.30
2018-02-10T10:32:18.123Z,13.50
2018-02-10T10:34:49.702Z,13.90
2018-02-10T10:37:20.680Z,13.50
2018-02-10T10:39:51.617Z,12.83
2018-02-10T10:42:22.390Z,13.50
2018-02-10T10:44:53.998Z,12.70
2018-02-10T10:47:24.743Z,12.67
2018-02-10T10:49:55.605Z,13.50
2018-02-10T10:52:26.374Z,11.93
2018-02-10T10:54:57.141Z,13.07
2018-02-10T10:57:27.906Z,13.10
2018-02-10T10:59:58.948Z,13.37
2018-02-10T11:02:29.510Z,14.33
2018-02-10T11:05:01.225Z,13.27
2018-02-10T11:07:32.136Z,12.87
2018-02-10T11:10:02.735Z,13.83
2018-02-10T11:12:34.338Z,13.07
2018-02-10T11:15:05.070Z,14.00
2018-02-10T11:17:37.037Z,13.67
2018-02-10T11:20:07.910Z,12.27
2018-02-10T11:22:38.856Z,13.60
2018-02-10T11:25:10.327Z,14.57
2018-02-10T11:27:41.761Z,13.53
2018-02-10T11:30:13.264Z,14.90
2018-02-10T11:32:44.223Z,13.93
2018-02-10T11:35:15.066Z,14.27
2018-02-10T11:37:45.774Z,13.57
2018-02-10T11:40:16.578Z,13.73
2018-02-10T11:42:47.346Z,13.77
2018-02-10T11:45:18.178Z,13.03
2018-02-10T11:47:48.786Z,14.13
2018-02-10T11:50:19.425Z,14.10
2018-02-10T11:52:50.206Z,14.63
2018-02-10T11:55:21.023Z,14.77
2018-02-10T11:57:51.873Z,14.53
2018-02-10T12:00:22.549Z,14.30
2018-02-10T12:02:53.207Z,15.77
2018-02-10T12:05:24.025Z,14.17
2018-02-10T12:07:54.643Z,14.20
2018-02-10T12:10:26.083Z,15.20
2018-02-10T12:12:57.646Z,16.80
2018-02-10T12:15:29.261Z,16.40
2018-02-10T12:18:00.048Z,16.27
2018-02-10T12:20:30.885Z,17.10
2018-02-10T12:23:01.601Z,16.47
2018-02-10T12:25:33.103Z,18.47
2018-02-10T12:28:03.978Z,16.27
2018-02-10T12:30:35.574Z,15.83
2018-02-10T12:33:06.241Z,16.67
2018-02-10T12:35:36.954Z,17.50
2018-02-10T12:38:07.706Z,17.20
2018-02-10T12:40:38.577Z,16.93
2018-02-10T12:43:09.952Z,18.10
2018-02-10T12:45:40.711Z,18.60
2018-02-10T12:48:16.495Z,17.60
2018-02-10T12:50:47.990Z,17.90
2018-02-10T12:53:18.766Z,17.50
2018-02-10T12:55:49.489Z,17.40
2018-02-10T12:58:20.186Z,16.20
2018-02-10T13:00:51.102Z,15.97
2018-02-10T13:03:22.693Z,17.90
2018-02-10T13:05:53.517Z,15.93
2018-02-10T13:08:24.353Z,16.50
2018-02-10T13:10:55.161Z,15.83
2018-02-10T13:13:27.027Z,16.40
2018-02-10T13:15:58.773Z,15.83
2018-02-10T13:18:30.424Z,16.87
2018-02-10T13:21:02.066Z,17.37
2018-02-10T13:23:33.016Z,17.10
2018-02-10T13:26:03.815Z,18.33
2018-02-10T13:28:34.858Z,16.57
2018-02-10T13:31:05.778Z,15.27
2018-02-10T13:33:37.371Z,17.23
2018-02-10T13:36:15.113Z,16.70
2018-02-10T13:38:45.846Z,17.60
2018-02-10T13:41:16.593Z,17.70
2018-02-10T13:43:47.590Z,18.40
2018-02-10T13:46:18.306Z,17.77
2018-02-10T13:48:49.453Z,18.00
2018-02-10T13:51:21.125Z,18.50
2018-02-10T13:53:52.044Z,18.97
2018-02-10T13:56:22.922Z,19.50
2018-02-10T13:58:54.603Z,19.27
2018-02-10T14:01:25.618Z,20.30
2018-02-10T14:03:57.352Z,19.80
2018-02-10T14:06:28.267Z,20.00
2018-02-10T14:08:59.397Z,20.07
2018-02-10T14:11:30.125Z,21.10
2018-02-10T14:14:00.883Z,20.43
2018-02-10T14:16:31.748Z,21.27
2018-02-10T14:19:04.581Z,22.10
2018-02-10T14:21:37.963Z,21.63
2018-02-10T14:24:08.859Z,22.60
2018-02-10T14:26:39.610Z,20.47
2018-02-10T14:29:10.773Z,21.43
2018-02-10T14:31:42.565Z,22.73
2018-02-10T14:34:14.430Z,23.70
2018-02-10T14:36:45.407Z,22.03
2018-02-10T14:39:17.254Z,22.20
2018-02-10T14:41:49.019Z,23.73
2018-02-10T14:44:20.930Z,23.50
2018-02-10T14:46:51.987Z,23.37
2018-02-10T14:49:23.603Z,23.23
2018-02-10T14:51:54.618Z,23.40
2018-02-10T14:54:26.355Z,23.10
2018-02-10T14:56:57.182Z,22.27
2018-02-10T14:59:28.181Z,22.50
2018-02-10T15:01:59.276Z,23.87
2018-02-10T15:04:30.681Z,23.10
2018-02-10T15:07:01.721Z,23.70
2018-02-10T15:09:33.017Z,23.03
2018-02-10T15:12:04.513Z,23.23
2018-02-10T15:14:36.394Z,22.83
2018-02-10T15:17:08.129Z,23.20
2018-02-10T15:19:38.926Z,23.37
2018-02-10T15:22:09.897Z,23.40
2018-02-10T15:24:41.100Z,24.63
2018-02-10T15:27:12.882Z,24.10
2018-02-10T15:29:55.353Z,23.30
2018-02-10T15:32:37.289Z,22.77
2018-02-10T15:35:09.051Z,23.10
2018-02-10T15:37:41.013Z,24.43
2018-02-10T15:40:12.989Z,23.63
2018-02-10T15:42:44.418Z,22.17
2018-02-10T15:45:17.213Z,22.67
2018-02-10T15:47:49.414Z,24.73
2018-02-10T15:50:20.563Z,25.40
2018-02-10T15:52:51.795Z,24.13
2018-02-10T15:55:22.820Z,23.80
2018-02-10T15:57:54.311Z,22.70
2018-02-10T16:00:25.342Z,23.70
2018-02-10T16:02:56.194Z,24.40
2018-02-10T16:05:27.237Z,23.37
2018-02-10T16:07:58.513Z,22.90
2018-02-10T16:10:30.222Z,24.43
2018-02-10T16:13:01.310Z,23.07
2018-02-10T16:15:32.870Z,24.10
2018-02-10T16:18:04.889Z,23.47
2018-02-10T16:20:35.963Z,24.90
2018-02-10T16:23:07.861Z,23.83
2018-02-10T16:25:39.119Z,23.93
2018-02-10T16:28:10.153Z,22.77
2018-02-10T16:30:41.031Z,21.90
2018-02-10T16:33:12.851Z,23.33
2018-02-10T16:35:44.378Z,23.77
2018-02-10T16:38:16.431Z,24.37
2018-02-10T16:40:48.182Z,22.60
2018-02-10T16:43:19.747Z,22.50
2018-02-10T16:45:51.384Z,25.17
2018-02-10T16:48:23.691Z,23.30
2018-02-10T16:50:54.806Z,24.00
2018-02-10T16:53:26.854Z,23.27
2018-02-10T16:55:58.087Z,23.23
2018-02-10T16:58:29.467Z,24.10
2018-02-10T17:01:01.646Z,23.57
2018-02-10T17:03:33.748Z,23.50
2018-02-10T17:06:04.800Z,26.40
2018-02-10T17:08:35.907Z,27.93
2018-02-10T17:11:07.892Z,32.23
2018-02-10T17:13:38.575Z,30.47
2018-02-10T17:16:10.539Z,28.40
2018-02-10T17:18:42.300Z,24.87
2018-02-10T17:21:14.087Z,22.60
2018-02-10T17:23:45.327Z,24.00
2018-02-10T17:26:16.308Z,25.13
2018-02-10T17:28:47.289Z,23.87
2018-02-10T17:31:19.062Z,22.43
2018-02-10T17:33:49.998Z,23.07
2018-02-10T17:36:22.875Z,26.27
2018-02-10T17:38:55.932Z,24.07
2018-02-10T17:41:26.742Z,24.03
2018-02-10T17:43:57.374Z,24.37
2018-02-10T17:46:28.319Z,24.10
2018-02-10T17:48:59.222Z,25.40
2018-02-10T17:51:30.246Z,23.30
2018-02-10T17:54:02.020Z,25.23
2018-02-10T17:56:32.790Z,24.60
2018-02-10T17:59:04.677Z,23.97
2018-02-10T18:01:35.672Z,22.87
2018-02-10T18:04:06.649Z,24.83
2018-02-10T18:06:37.491Z,24.03
2018-02-10T18:09:08.518Z,24.30
2018-02-10T18:11:39.347Z,23.93
2018-02-10T18:14:10.252Z,23.00
2018-02-10T18:16:41.008Z,23.30
2018-02-10T18:19:11.963Z,24.20
2018-02-10T18:21:42.830Z,24.40
2018-02-10T18:24:14.411Z,23.60
2018-02-10T18:26:45.226Z,23.50
2018-02-10T18:29:16.853Z,23.20
2018-02-10T18:31:47.626Z,23.47
2018-02-10T18:34:19.200Z,22.17
2018-02-10T18:36:50.934Z,23.63
2018-02-10T18:39:22.680Z,23.80
2018-02-10T18:41:54.311Z,24.30
2018-02-10T18:44:25.179Z,23.13
2018-02-10T18:46:58.336Z,23.10
2018-02-10T18:49:29.318Z,22.33
2018-02-10T18:52:00.051Z,21.70
2018-02-10T18:54:30.854Z,24.40
2018-02-10T18:57:01.830Z,22.60
2018-02-10T18:59:33.105Z,23.50
2018-02-10T19:02:03.917Z,24.63
2018-02-10T19:04:39.814Z,21.80
2018-02-10T19:07:10.667Z,22.30
2018-02-10T19:09:41.624Z,22.43
2018-02-10T19:12:13.255Z,22.93
2018-02-10T19:14:44.060Z,23.17
2018-02-10T19:17:14.928Z,22.20
2018-02-10T19:19:46.095Z,22.93
2018-02-10T19:22:17.796Z,22.33
2018-02-10T19:24:48.767Z,23.30
2018-02-10T19:27:19.515Z,23.57
2018-02-10T19:29:51.166Z,22.47
2018-02-10T19:32:23.392Z,23.50
2018-02-10T19:34:54.357Z,22.17
2018-02-10T19:37:25.295Z,23.63
2018-02-10T19:39:56.141Z,22.97
2018-02-10T19:42:26.960Z,22.50
2018-02-10T19:44:58.006Z,22.70
2018-02-10T19:47:29.603Z,24.27
2018-02-10T19:50:01.019Z,24.20
2018-02-10T19:52:31.961Z,22.60
2018-02-10T19:55:02.359Z,25.47
2018-02-10T19:57:33.212Z,24.07
2018-02-10T20:00:04.161Z,23.03
2018-02-10T20:02:34.850Z,23.73
2018-02-10T20:05:05.750Z,24.70
2018-02-10T20:07:37.586Z,23.97
2018-02-10T20:10:09.041Z,23.87
2018-02-10T20:12:41.202Z,24.50
2018-02-10T20:15:12.148Z,22.30
2018-02-10T20:17:42.904Z,23.33
2018-02-10T20:20:14.292Z,23.33
2018-02-10T20:22:45.231Z,23.73
2018-02-10T20:25:16.090Z,21.93
2018-02-10T20:27:47.040Z,23.00
2018-02-10T20:30:17.656Z,22.40
2018-02-10T20:32:48.506Z,24.93
2018-02-10T20:35:19.298Z,24.53
2018-02-10T20:37:50.057Z,23.93
2018-02-10T20:40:20.752Z,25.03
2018-02-10T20:42:52.342Z,23.17
2018-02-10T20:45:23.075Z,23.80
2018-02-10T20:47:53.928Z,24.47
2018-02-10T20:50:24.556Z,23.40
2018-02-10T20:53:00.518Z,25.70
2018-02-10T20:55:31.501Z,24.70
2018-02-10T20:58:02.886Z,23.30
2018-02-10T21:00:33.628Z,24.00
2018-02-10T21:03:04.489Z,24.67
2018-02-10T21:05:35.267Z,25.03
2018-02-10T21:08:06.104Z,25.27
2018-02-10T21:10:36.976Z,25.20
2018-02-10T21:13:07.834Z,24.93
2018-02-10T21:15:38.788Z,23.80
2018-02-10T21:18:10.422Z,24.57
2018-02-10T21:20:41.260Z,24.40
2018-02-10T21:23:12.027Z,22.53
2018-02-10T21:25:43.801Z,22.93
2018-02-10T21:28:14.670Z,24.63
2018-02-10T21:30:45.507Z,24.00
2018-02-10T21:33:16.344Z,23.07
2018-02-10T21:35:47.205Z,24.03
2018-02-10T21:38:17.939Z,24.03
2018-02-10T21:40:48.927Z,24.50
2018-02-10T21:43:19.520Z,23.50
2018-02-10T21:45:50.301Z,24.10
2018-02-10T21:48:21.187Z,23.00
2018-02-10T21:50:52.018Z,22.77
2018-02-10T21:53:22.953Z,24.23
2018-02-10T21:55:53.771Z,22.73
2018-02-10T21:58:24.491Z,23.43
2018-02-10T22:00:55.318Z,23.80
2018-02-10T22:03:26.135Z,22.13
2018-02-10T22:05:57.038Z,24.33
2018-02-10T22:08:28.558Z,22.00
2018-02-10T22:10:59.426Z,22.70
2018-02-10T22:13:30.398Z,23.20
2018-02-10T22:16:01.991Z,22.37
2018-02-10T22:18:32.976Z,24.47
2018-02-10T22:21:03.912Z,22.60
2018-02-10T22:23:35.538Z,23.20
2018-02-10T22:26:06.304Z,22.00
2018-02-10T22:28:38.278Z,22.53
2018-02-10T22:31:10.012Z,22.30
2018-02-10T22:33:40.861Z,22.63
2018-02-10T22:36:12.446Z,23.90
2018-02-10T22:38:43.342Z,25.40
2018-02-10T22:41:14.150Z,22.00
2018-02-10T22:43:44.995Z,24.17
2018-02-10T22:46:15.683Z,23.90
2018-02-10T22:48:46.474Z,23.90
2018-02-10T22:51:18.022Z,23.20
2018-02-10T22:53:48.834Z,22.97
2018-02-10T22:56:19.642Z,22.70
2018-02-10T22:58:50.526Z,23.00
2018-02-10T23:01:21.445Z,22.90
2018-02-10T23:03:52.206Z,23.00
2018-02-10T23:06:23.030Z,23.40
2018-02-10T23:08:53.854Z,24.70
2018-02-10T23:11:24.312Z,22.00
2018-02-10T23:13:55.149Z,23.90
2018-02-10T23:16:25.842Z,26.20
2018-02-10T23:18:56.727Z,25.10
2018-02-10T23:21:27.600Z,23.80
2018-02-10T23:23:58.509Z,24.50
2018-02-10T23:26:30.126Z,23.43
2018-02-10T23:29:00.985Z,24.00
2018-02-10T23:31:31.681Z,24.80
2018-02-10T23:34:02.619Z,24.50
2018-02-10T23:36:33.222Z,24.20
2018-02-10T23:39:04.159Z,24.90
2018-02-10T23:41:34.940Z,25.77
2018-02-10T23:44:05.782Z,24.80
2018-02-10T23:46:36.425Z,25.90
2018-02-10T23:49:07.689Z,25.13
2018-02-10T23:51:39.285Z,25.63
2018-02-10T23:54:10.119Z,25.37
2018-02-10T23:56:41.799Z,24.57
2018-02-10T23:59:12.550Z,24.20
